CheckWX is a tool to help pilots better visualize weather data.  It is not intended as a substitute for an official pre-flight weather briefing.

18:17:50 UTC

LGKV TAF
Alexander the Great International Airport
Kavala, Greece
TAF LGKV 171700Z 1718/1803 VRB05KT CAVOK

Feb-17@
18:00 UTC

Feb-17 @ 18:00 UTC

Feb-18@
03:00 UTC

Feb-18 @ 03:00 UTC

TAF LGKV 171700Z 1718/1803 VRB05KT CAVOK
Wind
  • Variable at 5 KTS
Visibility
10,000+ meters
Conditions
No significant weather
Cloud Levels
  • No significant clouds